createdAt,value
2022-10-18T00:01:50.959Z,56.55
2022-10-18T00:03:52.661Z,56.55
2022-10-18T00:05:54.257Z,56.41
2022-10-18T00:07:55.826Z,56.43
2022-10-18T00:09:57.547Z,56.84
2022-10-18T00:11:59.379Z,57.18
2022-10-18T00:14:01.295Z,56.50
2022-10-18T00:16:04.929Z,56.83
2022-10-18T00:18:06.618Z,56.85
2022-10-18T00:20:08.802Z,56.20
2022-10-18T00:22:10.423Z,56.66
2022-10-18T00:24:12.378Z,56.27
2022-10-18T00:26:19.570Z,56.43
2022-10-18T00:28:21.320Z,56.12
2022-10-18T00:30:23.010Z,56.29
2022-10-18T00:32:25.347Z,56.29
2022-10-18T00:34:27.383Z,56.40
2022-10-18T00:36:31.206Z,56.33
2022-10-18T00:38:32.712Z,56.32
2022-10-18T00:40:34.474Z,56.29
2022-10-18T00:42:37.194Z,56.40
2022-10-18T00:44:38.720Z,56.95
2022-10-18T00:46:43.201Z,57.73
2022-10-18T00:48:45.096Z,57.57
2022-10-18T00:50:47.779Z,58.32
2022-10-18T00:52:53.606Z,59.13
2022-10-18T00:54:56.176Z,58.57
2022-10-18T00:56:58.174Z,58.83
2022-10-18T00:58:59.870Z,58.92
2022-10-18T01:01:01.670Z,58.59
2022-10-18T01:03:03.293Z,58.55
2022-10-18T01:05:05.599Z,58.36
2022-10-18T01:07:25.877Z,58.22
2022-10-18T01:09:39.697Z,57.94
2022-10-18T01:12:18.272Z,57.49
2022-10-18T01:14:52.127Z,58.09
2022-10-18T01:17:33.710Z,57.86
2022-10-18T01:22:22.643Z,58.21
2022-10-18T01:24:50.276Z,58.06
2022-10-18T01:27:25.826Z,57.35
2022-10-18T01:29:47.717Z,58.00
2022-10-18T01:31:59.546Z,57.49
2022-10-18T01:34:04.331Z,57.67
2022-10-18T01:36:07.850Z,58.35
2022-10-18T01:38:12.940Z,57.89
2022-10-18T01:40:18.927Z,57.51
2022-10-18T01:42:21.342Z,57.53
2022-10-18T01:44:25.375Z,57.85
2022-10-18T01:46:28.235Z,57.51
2022-10-18T01:48:29.912Z,58.30
2022-10-18T01:50:33.919Z,57.94
2022-10-18T01:52:35.606Z,57.66
2022-10-18T01:54:40.186Z,58.46
2022-10-18T01:56:58.311Z,59.12
2022-10-18T01:59:07.657Z,57.91
2022-10-18T02:01:26.010Z,57.90
2022-10-18T02:03:29.161Z,58.75
2022-10-18T02:05:38.779Z,58.77
2022-10-18T02:08:19.226Z,58.27
2022-10-18T02:10:47.289Z,58.36
2022-10-18T02:12:50.479Z,58.55
2022-10-18T02:14:52.407Z,58.34
2022-10-18T02:16:57.278Z,57.92
2022-10-18T02:19:02.504Z,57.92
2022-10-18T02:21:06.322Z,57.45
2022-10-18T02:23:08.121Z,57.58
2022-10-18T02:25:14.492Z,57.31
2022-10-18T02:27:16.290Z,58.43
2022-10-18T02:29:17.932Z,58.96
2022-10-18T02:31:26.275Z,58.94
2022-10-18T02:33:35.908Z,58.88
2022-10-18T02:35:41.006Z,59.66
2022-10-18T02:37:43.166Z,59.53
2022-10-18T02:39:47.809Z,60.47
2022-10-18T02:41:49.483Z,59.87
2022-10-18T02:43:51.147Z,59.73
2022-10-18T02:45:53.087Z,59.75
2022-10-18T02:47:54.632Z,59.63
2022-10-18T02:49:56.213Z,59.87
2022-10-18T02:51:57.820Z,59.54
2022-10-18T02:53:59.412Z,58.92
2022-10-18T02:56:01.112Z,58.90
2022-10-18T02:58:02.732Z,58.96
2022-10-18T03:00:05.384Z,58.74
2022-10-18T03:02:07.011Z,58.83
2022-10-18T03:04:08.734Z,59.19
2022-10-18T03:06:10.315Z,58.62
2022-10-18T03:08:11.985Z,59.12
2022-10-18T03:10:13.667Z,58.98
2022-10-18T03:12:15.346Z,59.18
2022-10-18T03:14:17.110Z,58.43
2022-10-18T03:16:18.742Z,58.68
2022-10-18T03:18:20.349Z,58.26
2022-10-18T03:20:22.069Z,58.56
2022-10-18T03:22:25.531Z,58.51
2022-10-18T03:24:27.943Z,58.69
2022-10-18T03:26:29.741Z,58.39
2022-10-18T03:28:31.402Z,58.39
2022-10-18T03:30:33.125Z,58.11
2022-10-18T03:32:35.066Z,58.12
2022-10-18T03:34:36.758Z,58.20
2022-10-18T03:36:40.129Z,58.24
2022-10-18T03:38:42.333Z,58.13
2022-10-18T03:40:43.925Z,58.38
2022-10-18T03:42:45.493Z,59.16
2022-10-18T03:44:47.285Z,59.10
2022-10-18T03:46:48.901Z,59.44
2022-10-18T03:48:50.534Z,59.91
2022-10-18T03:50:52.197Z,60.06
2022-10-18T03:52:54.554Z,60.41
2022-10-18T03:54:56.137Z,59.82
2022-10-18T03:56:57.902Z,59.44
2022-10-18T03:58:59.523Z,59.14
2022-10-18T04:01:01.187Z,58.70
2022-10-18T04:03:02.995Z,60.09
2022-10-18T04:05:04.927Z,60.14
2022-10-18T04:07:06.534Z,59.25
2022-10-18T04:09:27.002Z,59.37
2022-10-18T04:11:28.600Z,59.93
2022-10-18T04:13:30.178Z,60.13
2022-10-18T04:15:31.914Z,60.13
2022-10-18T04:17:34.089Z,59.29
2022-10-18T04:19:35.927Z,59.43
2022-10-18T04:21:37.876Z,59.93
2022-10-18T04:23:39.580Z,59.23
2022-10-18T04:25:41.262Z,59.46
2022-10-18T04:27:43.063Z,59.48
2022-10-18T04:29:44.671Z,59.99
2022-10-18T04:31:46.347Z,59.53
2022-10-18T04:33:48.046Z,59.21
2022-10-18T04:35:51.997Z,59.23
2022-10-18T04:37:53.819Z,59.22
2022-10-18T04:39:55.491Z,61.00
2022-10-18T04:41:57.066Z,60.13
2022-10-18T04:43:58.634Z,60.27
2022-10-18T04:46:00.675Z,59.96
2022-10-18T04:48:02.798Z,59.89
2022-10-18T04:50:05.419Z,60.20
2022-10-18T04:52:07.364Z,59.47
2022-10-18T04:54:08.996Z,59.29
2022-10-18T04:56:10.872Z,60.19
2022-10-18T04:58:12.854Z,60.22
2022-10-18T05:00:14.920Z,60.06
2022-10-18T05:02:16.567Z,60.62
2022-10-18T05:04:18.153Z,60.54
2022-10-18T05:06:20.215Z,59.74
2022-10-18T05:08:21.963Z,60.73
2022-10-18T05:10:23.596Z,60.87
2022-10-18T05:12:25.206Z,62.57
2022-10-18T05:14:26.973Z,64.34
2022-10-18T05:16:28.628Z,65.07
2022-10-18T05:18:30.359Z,65.94
2022-10-18T05:20:32.075Z,66.10
2022-10-18T05:22:33.945Z,66.39
2022-10-18T05:24:35.673Z,65.31
2022-10-18T05:26:37.370Z,65.09
2022-10-18T05:28:40.521Z,64.88
2022-10-18T05:30:42.808Z,64.53
2022-10-18T05:32:44.458Z,64.50
2022-10-18T05:34:46.080Z,63.59
2022-10-18T05:36:49.746Z,62.38
2022-10-18T05:38:52.866Z,62.03
2022-10-18T05:40:54.475Z,61.87
2022-10-18T05:42:56.039Z,61.12
2022-10-18T05:44:57.690Z,60.57
2022-10-18T05:46:59.283Z,60.80
2022-10-18T05:49:00.946Z,60.54
2022-10-18T05:51:02.936Z,59.84
2022-10-18T05:53:12.059Z,59.45
2022-10-18T05:55:14.275Z,58.54
2022-10-18T05:57:16.101Z,58.05
2022-10-18T05:59:17.732Z,58.44
2022-10-18T06:01:19.695Z,58.39
2022-10-18T06:03:21.296Z,58.75
2022-10-18T06:05:23.001Z,58.01
2022-10-18T06:07:24.597Z,57.55
2022-10-18T06:09:26.440Z,57.90
2022-10-18T06:11:28.001Z,57.73
2022-10-18T06:13:31.239Z,57.07
2022-10-18T06:15:34.231Z,57.61
2022-10-18T06:17:36.027Z,57.13
2022-10-18T06:19:37.945Z,56.81
2022-10-18T06:21:39.640Z,57.08
2022-10-18T06:23:41.246Z,56.72
2022-10-18T06:25:42.808Z,56.11
2022-10-18T06:27:44.419Z,55.59
2022-10-18T06:29:46.044Z,56.06
2022-10-18T06:31:47.597Z,55.92
2022-10-18T06:33:49.468Z,55.49
2022-10-18T06:35:59.459Z,55.85
2022-10-18T06:38:01.031Z,56.11
2022-10-18T06:40:02.739Z,55.40
2022-10-18T06:42:04.288Z,55.43
2022-10-18T06:44:14.355Z,55.51
2022-10-18T06:46:16.250Z,55.88
2022-10-18T06:50:25.318Z,56.03
2022-10-18T06:52:27.155Z,56.35
2022-10-18T06:54:28.766Z,56.08
2022-10-18T06:56:30.728Z,55.91
2022-10-18T06:58:33.471Z,54.93
2022-10-18T07:00:35.969Z,55.70
2022-10-18T07:02:41.225Z,55.18
2022-10-18T07:04:43.190Z,55.15
2022-10-18T07:06:44.853Z,55.83
2022-10-18T07:08:47.881Z,55.90
2022-10-18T07:10:53.327Z,56.01
2022-10-18T07:13:08.034Z,55.77
2022-10-18T07:15:17.972Z,55.88
2022-10-18T07:17:19.647Z,54.92
2022-10-18T07:19:21.386Z,55.67
2022-10-18T07:21:25.317Z,55.35
2022-10-18T07:23:26.785Z,55.83
2022-10-18T07:25:30.505Z,55.81
2022-10-18T07:27:36.797Z,55.44
2022-10-18T07:29:39.658Z,55.42
2022-10-18T07:31:41.349Z,54.65
2022-10-18T07:33:45.738Z,54.52
2022-10-18T07:35:48.026Z,53.91
2022-10-18T07:37:49.666Z,54.07
2022-10-18T07:39:51.281Z,53.70
2022-10-18T07:41:52.956Z,53.43
2022-10-18T07:43:54.608Z,53.44
2022-10-18T07:45:58.250Z,53.35
2022-10-18T07:47:59.874Z,53.32
2022-10-18T07:50:01.554Z,54.05
2022-10-18T07:52:03.545Z,54.70
2022-10-18T07:54:05.117Z,53.95
2022-10-18T07:56:16.502Z,53.61
2022-10-18T07:58:18.312Z,52.63
2022-10-18T08:00:20.164Z,53.77
2022-10-18T08:02:22.798Z,54.01
2022-10-18T08:04:24.398Z,53.39
2022-10-18T08:06:26.008Z,53.12
2022-10-18T08:08:27.875Z,53.11
2022-10-18T08:10:29.578Z,52.81
2022-10-18T08:12:31.277Z,52.78
2022-10-18T08:14:32.909Z,52.49
2022-10-18T08:16:34.538Z,52.68
2022-10-18T08:18:37.098Z,52.16
2022-10-18T08:20:43.567Z,51.64
2022-10-18T08:22:45.233Z,51.80
2022-10-18T08:24:47.078Z,51.89
2022-10-18T08:26:49.568Z,51.76
2022-10-18T08:29:10.304Z,50.41
2022-10-18T08:31:17.574Z,50.25
2022-10-18T08:33:19.181Z,50.02
2022-10-18T08:35:20.829Z,49.14
2022-10-18T08:37:22.474Z,48.46
2022-10-18T08:39:24.223Z,48.36
2022-10-18T08:41:37.709Z,48.20
2022-10-18T08:43:44.111Z,48.20
2022-10-18T08:45:45.827Z,48.27
2022-10-18T08:47:49.862Z,49.15
2022-10-18T08:49:58.175Z,48.47
2022-10-18T08:52:00.026Z,48.16
2022-10-18T08:54:12.677Z,47.82
2022-10-18T08:56:21.786Z,46.86
2022-10-18T08:58:30.910Z,45.64
2022-10-18T09:00:35.947Z,46.05
2022-10-18T09:02:50.938Z,46.13
2022-10-18T09:04:55.312Z,46.45
2022-10-18T09:07:25.519Z,47.03
2022-10-18T09:09:39.837Z,47.06
2022-10-18T09:11:50.518Z,46.21
2022-10-18T09:13:54.988Z,46.35
2022-10-18T09:16:01.747Z,45.71
2022-10-18T09:18:26.228Z,45.41
2022-10-18T09:20:29.052Z,44.61
2022-10-18T09:22:42.328Z,44.61
2022-10-18T09:25:00.493Z,44.10
2022-10-18T09:27:05.958Z,43.31
2022-10-18T09:29:13.520Z,43.33
2022-10-18T09:31:45.314Z,42.77
2022-10-18T09:33:53.480Z,43.14
2022-10-18T09:35:59.544Z,43.19
2022-10-18T09:38:06.150Z,43.88
2022-10-18T09:40:19.162Z,43.71
2022-10-18T09:42:30.269Z,43.60
2022-10-18T09:44:38.642Z,43.87
2022-10-18T09:46:45.506Z,44.01
2022-10-18T09:48:51.703Z,43.82
2022-10-18T09:51:12.939Z,43.37
2022-10-18T09:53:17.638Z,42.16
2022-10-18T09:55:23.569Z,42.27
2022-10-18T09:57:29.991Z,42.29
2022-10-18T09:59:39.455Z,42.17
2022-10-18T10:01:41.175Z,41.58
2022-10-18T10:03:43.133Z,41.84
2022-10-18T10:05:45.188Z,40.89
2022-10-18T10:07:48.544Z,41.06
2022-10-18T10:10:05.221Z,41.20
2022-10-18T10:12:25.108Z,40.42
2022-10-18T10:14:30.370Z,39.94
2022-10-18T10:16:32.174Z,39.89
2022-10-18T10:18:35.129Z,39.74
2022-10-18T10:20:43.208Z,39.60
2022-10-18T10:22:46.600Z,39.14
2022-10-18T10:24:53.881Z,40.30
2022-10-18T10:27:00.158Z,40.73
2022-10-18T10:29:01.829Z,40.60
2022-10-18T10:31:24.863Z,40.79
2022-10-18T10:33:38.265Z,40.18
2022-10-18T10:35:56.351Z,39.81
2022-10-18T10:37:58.115Z,39.50
2022-10-18T10:40:21.076Z,39.24
2022-10-18T10:42:23.654Z,39.20
2022-10-18T10:44:31.056Z,39.77
2022-10-18T10:46:36.613Z,39.66
2022-10-18T10:49:21.697Z,39.45
2022-10-18T10:51:29.714Z,38.92
2022-10-18T10:53:41.346Z,38.72
2022-10-18T10:55:42.924Z,38.43
2022-10-18T10:57:49.071Z,37.87
2022-10-18T10:59:56.375Z,38.12
2022-10-18T11:02:22.366Z,38.64
2022-10-18T11:04:28.069Z,38.15
2022-10-18T11:06:39.323Z,38.00
2022-10-18T11:08:43.448Z,38.07
2022-10-18T11:11:01.620Z,37.97
2022-10-18T11:13:28.597Z,36.97
2022-10-18T11:15:35.970Z,36.23
2022-10-18T11:18:14.478Z,37.08
2022-10-18T11:20:27.835Z,36.43
2022-10-18T11:22:34.870Z,36.25
2022-10-18T11:24:36.944Z,36.35
2022-10-18T11:26:47.015Z,35.66
2022-10-18T11:29:27.576Z,35.97
2022-10-18T11:31:36.408Z,35.06
2022-10-18T11:34:07.556Z,35.11
2022-10-18T11:36:21.264Z,34.87
2022-10-18T11:38:23.378Z,34.42
2022-10-18T11:40:31.918Z,34.73
2022-10-18T11:42:57.661Z,33.96
2022-10-18T11:45:15.270Z,34.19
2022-10-18T11:47:28.995Z,33.95
2022-10-18T11:49:47.826Z,33.60
2022-10-18T11:52:18.438Z,32.63
2022-10-18T11:55:04.772Z,33.28
2022-10-18T11:57:55.417Z,33.21
2022-10-18T12:00:02.858Z,32.58
2022-10-18T12:02:10.725Z,31.90
2022-10-18T12:04:17.954Z,31.69
2022-10-18T12:06:26.776Z,31.90
2022-10-18T12:08:39.323Z,31.83
2022-10-18T12:11:00.321Z,31.93
2022-10-18T12:13:07.751Z,31.45
2022-10-18T12:15:21.367Z,31.11
2022-10-18T12:17:50.016Z,31.28
2022-10-18T12:19:52.345Z,30.92
2022-10-18T12:21:56.859Z,30.98
2022-10-18T12:24:07.088Z,30.78
2022-10-18T12:26:10.778Z,30.46
2022-10-18T12:28:30.614Z,29.92
2022-10-18T12:30:43.099Z,29.66
2022-10-18T12:33:02.041Z,29.60
2022-10-18T12:35:11.926Z,27.17
2022-10-18T12:37:34.422Z,25.71
2022-10-18T12:40:05.477Z,24.44
2022-10-18T12:42:18.220Z,25.66
2022-10-18T12:44:29.731Z,27.53
2022-10-18T12:46:52.571Z,28.87
2022-10-18T12:49:05.076Z,26.24
2022-10-18T12:51:21.069Z,27.00
2022-10-18T12:53:27.444Z,24.01
2022-10-18T12:55:45.811Z,24.30
2022-10-18T12:57:53.664Z,24.67
2022-10-18T12:59:55.345Z,24.49
2022-10-18T13:02:00.029Z,23.56
2022-10-18T13:04:01.885Z,23.00
2022-10-18T13:06:06.673Z,23.90
2022-10-18T13:08:27.132Z,24.43
2022-10-18T13:10:37.100Z,23.44
2022-10-18T13:13:23.875Z,22.31
2022-10-18T13:15:47.298Z,22.19
2022-10-18T13:18:03.298Z,21.80
2022-10-18T13:20:57.345Z,21.58
2022-10-18T13:23:10.617Z,22.38
2022-10-18T13:25:15.315Z,22.89
2022-10-18T13:27:47.738Z,23.24
2022-10-18T13:30:02.970Z,22.92
2022-10-18T13:32:18.446Z,22.04
2022-10-18T13:34:46.545Z,22.31
2022-10-18T13:36:59.471Z,21.66
2022-10-18T13:39:03.885Z,21.58
2022-10-18T13:41:10.271Z,22.10
2022-10-18T13:43:52.422Z,21.72
2022-10-18T13:45:55.803Z,21.92
2022-10-18T13:48:17.993Z,21.72
2022-10-18T13:50:36.294Z,21.84
2022-10-18T13:53:22.753Z,22.17
2022-10-18T13:55:52.084Z,22.31
2022-10-18T13:58:05.688Z,21.76
2022-10-18T14:00:31.032Z,21.50
2022-10-18T14:03:26.633Z,21.19
2022-10-18T14:05:53.257Z,20.96
2022-10-18T14:08:10.211Z,21.27
2022-10-18T14:10:50.454Z,21.38
2022-10-18T14:13:00.910Z,21.49
2022-10-18T14:15:08.553Z,21.23
2022-10-18T14:18:00.576Z,21.18
2022-10-18T14:20:15.284Z,21.33
2022-10-18T14:22:19.194Z,21.49
2022-10-18T14:24:23.905Z,21.42
2022-10-18T14:26:29.370Z,22.12
2022-10-18T14:28:47.969Z,22.22
2022-10-18T14:31:06.554Z,21.74
2022-10-18T14:33:25.013Z,21.02
2022-10-18T14:35:32.888Z,21.67
2022-10-18T14:37:36.304Z,21.88
2022-10-18T14:39:38.839Z,22.46
2022-10-18T14:41:49.824Z,22.37
2022-10-18T14:43:52.832Z,22.51
2022-10-18T14:45:54.490Z,22.51
2022-10-18T14:48:05.694Z,22.60
2022-10-18T14:50:27.992Z,23.68
2022-10-18T14:52:35.611Z,24.20
2022-10-18T14:54:37.992Z,24.66
2022-10-18T14:56:41.421Z,25.15
2022-10-18T14:58:43.142Z,25.16
2022-10-18T15:00:48.489Z,25.52
2022-10-18T15:02:50.411Z,25.88
2022-10-18T15:05:05.565Z,26.10
2022-10-18T15:07:14.177Z,26.09
2022-10-18T15:09:20.578Z,26.40
2022-10-18T15:11:22.601Z,26.72
2022-10-18T15:13:26.474Z,26.83
2022-10-18T15:15:31.121Z,26.85
2022-10-18T15:17:33.369Z,26.71
2022-10-18T15:19:36.747Z,27.21
2022-10-18T15:21:38.406Z,27.27
2022-10-18T15:23:40.062Z,27.89
2022-10-18T15:25:41.697Z,28.52
2022-10-18T15:27:55.651Z,28.96
2022-10-18T15:29:57.393Z,28.96
2022-10-18T15:32:07.585Z,29.31
2022-10-18T15:34:27.273Z,29.51
2022-10-18T15:36:31.234Z,29.57
2022-10-18T15:38:32.952Z,30.01
2022-10-18T15:40:36.357Z,29.84
2022-10-18T15:42:38.136Z,29.94
2022-10-18T15:44:51.288Z,30.09
2022-10-18T15:46:56.189Z,30.61
2022-10-18T15:49:35.004Z,31.05
2022-10-18T15:52:08.393Z,30.11
2022-10-18T15:54:18.061Z,30.75
2022-10-18T15:56:31.342Z,30.22
2022-10-18T15:58:41.820Z,30.46
2022-10-18T16:00:44.460Z,30.64
2022-10-18T16:02:46.542Z,31.49
2022-10-18T16:04:48.173Z,31.78
2022-10-18T16:06:50.365Z,31.67
2022-10-18T16:08:53.590Z,31.95
2022-10-18T16:10:55.183Z,32.69
2022-10-18T16:12:56.804Z,32.99
2022-10-18T16:14:58.421Z,33.02
2022-10-18T16:17:02.054Z,33.25
2022-10-18T16:19:03.910Z,33.19
2022-10-18T16:21:05.679Z,33.37
2022-10-18T16:23:18.965Z,33.67
2022-10-18T16:25:20.578Z,33.88
2022-10-18T16:27:23.560Z,34.42
2022-10-18T16:29:26.857Z,34.17
2022-10-18T16:31:30.785Z,34.52
2022-10-18T16:33:32.568Z,34.37
2022-10-18T16:35:35.640Z,34.46
2022-10-18T16:37:38.525Z,34.57
2022-10-18T16:39:40.123Z,34.62
2022-10-18T16:41:41.858Z,34.82
2022-10-18T16:43:45.066Z,35.08
2022-10-18T16:45:46.908Z,35.56
2022-10-18T16:47:48.571Z,36.25
2022-10-18T16:49:50.624Z,36.52
2022-10-18T16:51:53.187Z,36.83
2022-10-18T16:53:55.479Z,37.04
2022-10-18T16:55:59.523Z,37.20
2022-10-18T16:58:01.138Z,37.54
2022-10-18T17:00:02.776Z,37.69
2022-10-18T17:02:09.066Z,37.77
2022-10-18T17:04:10.731Z,37.89
2022-10-18T17:06:16.344Z,37.66
2022-10-18T17:08:23.448Z,37.75
2022-10-18T17:10:26.450Z,37.89
2022-10-18T17:12:28.017Z,38.14
2022-10-18T17:14:29.853Z,38.00
2022-10-18T17:16:34.137Z,37.99
2022-10-18T17:18:35.778Z,38.16
2022-10-18T17:20:37.529Z,38.31
2022-10-18T17:22:39.121Z,38.23
2022-10-18T17:24:40.669Z,38.16
2022-10-18T17:26:42.334Z,38.21
2022-10-18T17:28:44.065Z,38.46
2022-10-18T17:30:46.229Z,38.72
2022-10-18T17:32:48.064Z,38.71
2022-10-18T17:34:49.726Z,38.98
2022-10-18T17:36:51.392Z,39.16
2022-10-18T17:38:54.529Z,40.19
2022-10-18T17:40:57.144Z,40.42
2022-10-18T17:42:59.497Z,40.50
2022-10-18T17:45:01.100Z,41.89
2022-10-18T17:47:02.752Z,42.66
2022-10-18T17:49:04.360Z,42.57
2022-10-18T17:51:09.957Z,42.46
2022-10-18T17:53:30.021Z,43.01
2022-10-18T17:55:31.687Z,43.12
2022-10-18T17:57:33.476Z,43.19
2022-10-18T17:59:35.296Z,43.41
2022-10-18T18:01:37.118Z,43.55
2022-10-18T18:03:39.108Z,43.31
2022-10-18T18:05:40.718Z,42.83
2022-10-18T18:07:42.370Z,42.77
2022-10-18T18:09:44.010Z,42.65
2022-10-18T18:11:49.701Z,42.77
2022-10-18T18:13:51.308Z,42.70
2022-10-18T18:15:52.956Z,42.87
2022-10-18T18:17:58.339Z,42.78
2022-10-18T18:20:00.184Z,42.86
2022-10-18T18:22:01.925Z,42.95
2022-10-18T18:24:04.015Z,43.33
2022-10-18T18:26:06.064Z,43.48
2022-10-18T18:28:07.839Z,43.44
2022-10-18T18:30:09.881Z,43.75
2022-10-18T18:32:11.632Z,43.40
2022-10-18T18:34:13.322Z,43.47
2022-10-18T18:36:15.107Z,42.98
2022-10-18T18:38:16.822Z,43.18
2022-10-18T18:40:18.413Z,43.40
2022-10-18T18:42:20.131Z,43.25
2022-10-18T18:44:22.660Z,43.73
2022-10-18T18:46:25.448Z,43.56
2022-10-18T18:48:28.145Z,44.11
2022-10-18T18:50:31.847Z,44.32
2022-10-18T18:52:33.585Z,44.80
2022-10-18T18:54:35.439Z,45.13
2022-10-18T18:56:37.965Z,45.28
2022-10-18T18:58:40.371Z,44.72
2022-10-18T19:00:44.442Z,44.34
2022-10-18T19:02:46.334Z,44.30
2022-10-18T19:04:47.949Z,43.94
2022-10-18T19:06:49.542Z,44.47
2022-10-18T19:08:54.194Z,44.36
2022-10-18T19:10:55.854Z,44.47
2022-10-18T19:12:57.437Z,44.13
2022-10-18T19:14:59.252Z,44.39
2022-10-18T19:17:02.528Z,44.04
2022-10-18T19:19:06.104Z,44.67
2022-10-18T19:21:07.934Z,44.20
2022-10-18T19:23:09.578Z,44.80
2022-10-18T19:25:11.387Z,44.65
2022-10-18T19:27:13.154Z,45.15
2022-10-18T19:29:19.086Z,45.78
2022-10-18T19:31:21.292Z,45.93
2022-10-18T19:33:41.080Z,46.20
2022-10-18T19:35:44.587Z,46.41
2022-10-18T19:37:46.157Z,46.85
2022-10-18T19:39:48.893Z,46.63
2022-10-18T19:41:55.503Z,46.87
2022-10-18T19:43:57.483Z,46.54
2022-10-18T19:46:02.910Z,46.53
2022-10-18T19:48:04.838Z,46.67
2022-10-18T19:50:06.967Z,46.49
2022-10-18T19:52:09.100Z,46.95
2022-10-18T19:54:14.478Z,47.76
2022-10-18T19:56:21.716Z,47.22
2022-10-18T19:58:23.364Z,46.75
2022-10-18T20:00:24.942Z,47.14
2022-10-18T20:02:26.545Z,47.78
2022-10-18T20:04:28.351Z,47.63
2022-10-18T20:06:30.753Z,48.35
2022-10-18T20:08:34.626Z,47.93
2022-10-18T20:10:36.479Z,47.57
2022-10-18T20:12:38.341Z,48.43
2022-10-18T20:14:39.946Z,48.52
2022-10-18T20:16:41.573Z,48.04
2022-10-18T20:18:43.479Z,48.16
2022-10-18T20:20:48.138Z,47.96
2022-10-18T20:22:50.285Z,47.83
2022-10-18T20:24:51.838Z,47.95
2022-10-18T20:29:00.134Z,47.44
2022-10-18T20:31:10.902Z,47.71
2022-10-18T20:33:12.614Z,48.16
2022-10-18T20:35:14.268Z,48.38
2022-10-18T20:37:15.834Z,48.52
2022-10-18T20:39:17.510Z,48.25
2022-10-18T20:41:41.062Z,48.43
2022-10-18T20:43:43.406Z,48.26
2022-10-18T20:45:45.133Z,48.36
2022-10-18T20:47:47.035Z,48.51
2022-10-18T20:49:48.656Z,48.46
2022-10-18T20:51:50.365Z,48.54
2022-10-18T20:53:53.575Z,48.82
2022-10-18T20:56:03.208Z,49.49
2022-10-18T20:58:06.048Z,50.00
2022-10-18T21:00:10.092Z,49.89
2022-10-18T21:02:14.824Z,50.13
2022-10-18T21:04:16.502Z,50.05
2022-10-18T21:06:23.279Z,49.79
2022-10-18T21:08:24.856Z,49.57
2022-10-18T21:10:26.542Z,50.22
2022-10-18T21:12:29.092Z,50.69
2022-10-18T21:14:30.941Z,50.84
2022-10-18T21:16:34.847Z,51.08
2022-10-18T21:18:37.289Z,51.35
2022-10-18T21:20:38.934Z,51.89
2022-10-18T21:22:40.632Z,51.88
2022-10-18T21:24:42.553Z,51.61
2022-10-18T21:26:44.754Z,52.14
2022-10-18T21:28:47.055Z,51.63
2022-10-18T21:30:48.682Z,51.35
2022-10-18T21:32:52.549Z,51.16
2022-10-18T21:34:54.040Z,50.56
2022-10-18T21:36:55.676Z,50.54
2022-10-18T21:38:57.436Z,50.34
2022-10-18T21:40:59.144Z,50.50
2022-10-18T21:43:00.798Z,50.15
2022-10-18T21:45:02.451Z,49.94
2022-10-18T21:47:04.061Z,50.04
2022-10-18T21:49:06.250Z,50.33
2022-10-18T21:51:08.778Z,50.30
2022-10-18T21:53:11.505Z,50.58
2022-10-18T21:55:13.144Z,50.81
2022-10-18T21:57:14.793Z,50.80
2022-10-18T21:59:16.514Z,51.05
2022-10-18T22:01:21.197Z,50.92
2022-10-18T22:03:23.421Z,50.56
2022-10-18T22:05:25.099Z,50.28
2022-10-18T22:07:26.852Z,50.64
2022-10-18T22:09:28.618Z,50.98
2022-10-18T22:11:39.519Z,50.43
2022-10-18T22:13:41.489Z,50.57
2022-10-18T22:15:43.136Z,50.64
2022-10-18T22:17:44.757Z,50.43
2022-10-18T22:19:47.348Z,50.54
2022-10-18T22:21:49.240Z,51.00
2022-10-18T22:23:53.179Z,51.52
2022-10-18T22:25:54.812Z,50.96
2022-10-18T22:27:56.412Z,51.06
2022-10-18T22:29:58.177Z,51.16
2022-10-18T22:32:01.805Z,51.74
2022-10-18T22:34:06.317Z,51.56
2022-10-18T22:36:08.362Z,52.57
2022-10-18T22:38:09.947Z,52.93
2022-10-18T22:40:11.833Z,52.93
2022-10-18T22:42:13.483Z,53.15
2022-10-18T22:44:15.472Z,53.64
2022-10-18T22:46:17.719Z,53.69
2022-10-18T22:48:19.377Z,53.67
2022-10-18T22:50:20.984Z,53.28
2022-10-18T22:52:22.562Z,52.59
2022-10-18T22:54:24.189Z,52.47
2022-10-18T22:56:25.812Z,52.52
2022-10-18T22:58:27.556Z,53.47
2022-10-18T23:00:29.310Z,52.83
2022-10-18T23:02:31.224Z,53.32
2022-10-18T23:04:33.401Z,53.58
2022-10-18T23:06:36.094Z,54.31
2022-10-18T23:08:37.690Z,54.05
2022-10-18T23:10:41.308Z,53.50
2022-10-18T23:12:43.083Z,53.69
2022-10-18T23:14:44.762Z,54.24
2022-10-18T23:16:46.638Z,53.97
2022-10-18T23:18:56.361Z,53.18
2022-10-18T23:21:05.753Z,53.52
2022-10-18T23:23:07.421Z,54.04
2022-10-18T23:25:09.300Z,54.06
2022-10-18T23:27:11.450Z,54.51
2022-10-18T23:29:13.912Z,54.30
2022-10-18T23:31:19.985Z,54.36
2022-10-18T23:33:21.582Z,54.82
2022-10-18T23:35:23.678Z,54.48
2022-10-18T23:37:25.326Z,53.91
2022-10-18T23:39:26.942Z,54.59
2022-10-18T23:41:28.682Z,54.30
2022-10-18T23:43:30.338Z,53.41
2022-10-18T23:45:31.987Z,53.67
2022-10-18T23:47:34.130Z,53.74
2022-10-18T23:49:35.957Z,53.22
2022-10-18T23:51:37.569Z,52.68
2022-10-18T23:53:39.235Z,53.67
2022-10-18T23:55:49.763Z,53.45
2022-10-18T23:57:51.365Z,53.67
2022-10-18T23:59:53.022Z,53.86
